Time;durP1;ratioP1;P1;durP2;ratioP2;P2;SDS_P1;SDS_P2;PMS_P1;PMS_P2;Temp;Humidity;BMP_temperature;BMP_pressure;BME280_temperature;BME280_humidity;BME280_pressure;Samples;Min_cycle;Max_cycle;Signal;HPM_P1;HPM_P2
2024/02/15 00:02:23;;;;;;;7.47;3.15;;;10.70;99.90;;;;;;5007884;28;20081;-69
2024/02/15 00:04:49;;;;;;;7.72;3.78;;;10.70;99.90;;;;;;5005941;28;20026;-69
2024/02/15 00:07:15;;;;;;;10.60;2.42;;;10.70;99.90;;;;;;5028298;28;20118;-69
2024/02/15 00:09:41;;;;;;;4.80;2.75;;;10.70;99.90;;;;;;5001609;28;20030;-69
2024/02/15 00:12:07;;;;;;;6.13;2.97;;;10.70;99.90;;;;;;5007553;28;20576;-69
2024/02/15 00:14:33;;;;;;;5.32;2.50;;;10.70;99.90;;;;;;5002953;28;20398;-69
2024/02/15 00:16:59;;;;;;;5.43;3.28;;;10.70;99.90;;;;;;5020540;28;20030;-69
2024/02/15 00:19:25;;;;;;;5.50;2.30;;;10.70;99.90;;;;;;5011832;28;20530;-69
2024/02/15 00:21:51;;;;;;;6.85;3.13;;;10.70;99.90;;;;;;5036652;28;20037;-68
2024/02/15 00:24:17;;;;;;;15.48;2.50;;;10.70;99.90;;;;;;5009729;28;20034;-69
2024/02/15 00:26:42;;;;;;;8.63;2.90;;;10.70;99.90;;;;;;5011810;28;20045;-69
2024/02/15 00:29:10;;;;;;;7.30;3.30;;;10.60;99.90;;;;;;5010086;28;20040;-69
2024/02/15 00:31:35;;;;;;;3.90;2.25;;;10.60;99.90;;;;;;5007946;28;20037;-68
2024/02/15 00:34:05;;;;;;;2.92;1.80;;;10.60;99.90;;;;;;4999713;28;20030;-69
2024/02/15 00:36:32;;;;;;;8.68;3.15;;;10.60;99.90;;;;;;5034469;28;20105;-69
2024/02/15 00:38:58;;;;;;;5.72;2.40;;;10.60;99.90;;;;;;5010523;28;20808;-70
2024/02/15 00:41:23;;;;;;;4.57;2.10;;;10.70;99.90;;;;;;5005370;28;20041;-69
2024/02/15 00:43:49;;;;;;;3.75;2.53;;;10.60;99.90;;;;;;5003840;28;20018;-70
2024/02/15 00:46:18;;;;;;;13.88;2.97;;;10.70;99.90;;;;;;5033012;28;20050;-69
2024/02/15 00:48:44;;;;;;;4.45;1.92;;;10.60;99.90;;;;;;5010896;28;20033;-69
2024/02/15 00:51:10;;;;;;;4.60;2.53;;;10.70;99.90;;;;;;5008701;28;20022;-69
2024/02/15 00:53:36;;;;;;;4.40;1.90;;;10.70;99.90;;;;;;5002259;28;20030;-69
2024/02/15 00:56:02;;;;;;;8.18;1.92;;;10.70;99.90;;;;;;5005583;28;20066;-69
2024/02/15 00:58:28;;;;;;;5.97;2.53;;;10.70;99.90;;;;;;5005284;28;20058;-69
2024/02/15 01:00:53;;;;;;;3.05;1.80;;;10.70;99.90;;;;;;5003598;28;20030;-69
2024/02/15 01:03:22;;;;;;;3.28;1.98;;;10.80;99.90;;;;;;5003807;28;20038;-69
2024/02/15 01:05:48;;;;;;;14.90;3.33;;;10.80;99.90;;;;;;5034452;28;20030;-69
2024/02/15 01:08:14;;;;;;;4.43;2.05;;;10.80;99.90;;;;;;5005602;28;20022;-69
2024/02/15 01:10:40;;;;;;;3.45;1.95;;;10.90;99.90;;;;;;5031629;28;20030;-69
2024/02/15 01:13:06;;;;;;;2.80;1.75;;;11.00;99.90;;;;;;5005364;28;20066;-69
2024/02/15 01:15:31;;;;;;;7.07;1.83;;;11.00;99.90;;;;;;5000461;28;20031;-69
2024/02/15 01:17:57;;;;;;;3.95;2.25;;;11.00;99.90;;;;;;5039000;28;20102;-69
2024/02/15 01:20:23;;;;;;;2.88;1.38;;;11.00;99.90;;;;;;5004662;28;20097;-69
2024/02/15 01:22:51;;;;;;;6.28;2.63;;;11.00;99.90;;;;;;5019316;28;20029;-69
2024/02/15 01:25:17;;;;;;;2.83;1.50;;;11.00;99.90;;;;;;5029997;28;20027;-69
2024/02/15 01:27:43;;;;;;;4.70;2.42;;;11.00;99.90;;;;;;5003887;28;20088;-69
2024/02/15 01:30:10;;;;;;;3.83;2.05;;;11.00;99.90;;;;;;5002445;28;20038;-69
2024/02/15 01:32:36;;;;;;;4.45;1.83;;;11.00;99.90;;;;;;5006907;28;20072;-69
2024/02/15 01:35:03;;;;;;;3.67;1.45;;;11.00;99.90;;;;;;5005778;28;20399;-69
2024/02/15 01:37:28;;;;;;;3.10;1.73;;;10.90;99.90;;;;;;5005648;28;20030;-69
2024/02/15 01:39:54;;;;;;;4.63;1.65;;;11.00;99.90;;;;;;5006361;28;20049;-69
2024/02/15 01:42:20;;;;;;;7.38;1.85;;;11.00;99.90;;;;;;5007139;28;20115;-69
2024/02/15 01:44:47;;;;;;;4.30;1.83;;;11.00;99.90;;;;;;5008685;28;20101;-69
2024/02/15 01:47:13;;;;;;;2.88;1.92;;;11.00;99.90;;;;;;5008374;28;20060;-69
2024/02/15 01:49:41;;;;;;;3.00;1.63;;;11.00;99.90;;;;;;5040006;28;20022;-69
2024/02/15 01:52:08;;;;;;;3.17;1.95;;;11.10;99.90;;;;;;5010943;28;20029;-69
2024/02/15 01:54:35;;;;;;;2.72;1.88;;;11.00;99.90;;;;;;5037532;28;20095;-69
2024/02/15 01:57:03;;;;;;;5.07;1.88;;;11.00;99.90;;;;;;5007785;28;20116;-69
2024/02/15 01:59:31;;;;;;;3.92;1.75;;;11.00;99.90;;;;;;5010776;28;20021;-69
2024/02/15 02:02:02;;;;;;;4.72;2.20;;;11.00;99.90;;;;;;5008136;28;20423;-69
2024/02/15 02:04:27;;;;;;;6.47;2.30;;;11.00;99.90;;;;;;5021156;28;20037;-69
2024/02/15 02:06:58;;;;;;;3.88;2.00;;;11.00;99.90;;;;;;5007955;28;20037;-69
2024/02/15 02:09:24;;;;;;;3.85;1.95;;;11.10;99.90;;;;;;5006898;28;20506;-69
2024/02/15 02:11:50;;;;;;;2.30;1.60;;;11.00;99.90;;;;;;5008278;28;20073;-69
2024/02/15 02:14:16;;;;;;;3.28;1.25;;;11.00;99.90;;;;;;5003556;28;20037;-69
2024/02/15 02:16:42;;;;;;;5.75;1.63;;;10.90;99.90;;;;;;5010035;28;20220;-69
2024/02/15 02:19:11;;;;;;;2.97;1.75;;;10.90;99.90;;;;;;5012078;28;20105;-70
2024/02/15 02:21:38;;;;;;;10.48;2.13;;;10.80;99.90;;;;;;5007078;28;20022;-69
2024/02/15 02:24:08;;;;;;;5.10;1.88;;;10.80;99.90;;;;;;5011429;28;20493;-69
2024/02/15 02:26:34;;;;;;;7.43;2.55;;;10.70;99.90;;;;;;5038262;28;20026;-69
2024/02/15 02:29:04;;;;;;;5.55;1.35;;;10.70;99.90;;;;;;5008307;28;20026;-69
2024/02/15 02:31:34;;;;;;;4.22;1.65;;;10.60;99.90;;;;;;5018562;28;20031;-69
2024/02/15 02:34:00;;;;;;;5.93;2.70;;;10.60;99.90;;;;;;5010891;28;20516;-69
2024/02/15 02:36:26;;;;;;;3.97;3.00;;;10.60;99.90;;;;;;5038785;28;20475;-69
2024/02/15 02:38:53;;;;;;;9.38;1.90;;;10.60;99.90;;;;;;5009310;28;20522;-69
2024/02/15 02:41:19;;;;;;;4.65;1.73;;;10.60;99.90;;;;;;5040214;28;20034;-69
2024/02/15 02:43:45;;;;;;;3.33;2.03;;;10.60;99.90;;;;;;5004850;28;20046;-69
2024/02/15 02:46:11;;;;;;;4.60;1.70;;;10.50;99.90;;;;;;5020144;28;20029;-69
2024/02/15 02:48:38;;;;;;;3.25;1.67;;;10.60;99.90;;;;;;5004395;28;20065;-69
2024/02/15 02:51:06;;;;;;;3.15;1.90;;;10.60;99.90;;;;;;5006921;28;20040;-70
2024/02/15 02:53:35;;;;;;;3.47;2.08;;;10.60;99.90;;;;;;5020638;28;20061;-70
2024/02/15 02:56:02;;;;;;;3.65;2.03;;;10.60;99.90;;;;;;5020933;28;20022;-70
2024/02/15 02:58:28;;;;;;;4.82;2.25;;;10.60;99.90;;;;;;5042001;28;20092;-70
2024/02/15 03:00:55;;;;;;;6.47;2.42;;;10.50;99.90;;;;;;5036319;28;20030;-69
2024/02/15 03:03:22;;;;;;;4.13;2.28;;;10.50;99.90;;;;;;5039922;28;20553;-68
2024/02/15 03:05:48;;;;;;;4.13;2.42;;;10.50;99.90;;;;;;5044301;28;20037;-70
2024/02/15 03:08:17;;;;;;;6.53;2.40;;;10.50;99.90;;;;;;5012066;28;20045;-70
2024/02/15 03:10:43;;;;;;;11.45;2.03;;;10.50;99.90;;;;;;5003915;28;20045;-70
2024/02/15 03:13:09;;;;;;;9.45;2.35;;;10.50;99.90;;;;;;5011773;28;20038;-70
2024/02/15 03:15:35;;;;;;;5.32;1.92;;;10.50;99.90;;;;;;5043562;28;20104;-69
2024/02/15 03:18:06;;;;;;;3.70;2.20;;;10.50;99.90;;;;;;5043423;28;20422;-70
2024/02/15 03:20:34;;;;;;;4.03;2.10;;;10.50;99.90;;;;;;5004331;28;20060;-69
2024/02/15 03:23:02;;;;;;;8.07;2.53;;;10.50;99.90;;;;;;5043586;28;20030;-70
2024/02/15 03:25:28;;;;;;;4.70;2.28;;;10.50;99.90;;;;;;5009578;28;20029;-70
2024/02/15 03:27:57;;;;;;;5.65;2.13;;;10.50;99.90;;;;;;5015605;28;20037;-69
2024/02/15 03:30:25;;;;;;;3.15;1.58;;;10.50;99.90;;;;;;5041995;28;20423;-70
2024/02/15 03:32:52;;;;;;;4.15;2.65;;;10.60;99.90;;;;;;5039560;28;20032;-70
2024/02/15 03:35:19;;;;;;;6.45;2.10;;;10.60;99.90;;;;;;5010376;28;20060;-69
2024/02/15 03:37:45;;;;;;;7.40;2.40;;;10.60;99.90;;;;;;4994440;28;20482;-70
2024/02/15 03:40:14;;;;;;;3.75;2.40;;;10.60;99.90;;;;;;5003583;28;20026;-70
2024/02/15 03:42:39;;;;;;;5.57;2.03;;;10.60;99.90;;;;;;5026855;28;20104;-70
2024/02/15 03:45:06;;;;;;;4.38;2.33;;;10.60;99.90;;;;;;5043926;28;20586;-70
2024/02/15 03:47:35;;;;;;;3.53;1.88;;;10.60;99.90;;;;;;5010589;28;20095;-69
2024/02/15 03:50:06;;;;;;;2.00;1.50;;;10.70;99.90;;;;;;5043707;28;20033;-69
2024/02/15 03:52:32;;;;;;;6.55;1.83;;;10.60;99.90;;;;;;5008913;28;20034;-69
2024/02/15 03:54:59;;;;;;;3.35;2.05;;;10.70;99.90;;;;;;5005121;28;20029;-69
2024/02/15 03:57:25;;;;;;;5.55;1.95;;;10.70;99.90;;;;;;5034500;28;20034;-69
2024/02/15 03:59:52;;;;;;;4.97;1.60;;;10.70;99.90;;;;;;4999213;28;20089;-69
2024/02/15 04:02:19;;;;;;;2.50;1.50;;;10.70;99.90;;;;;;5037516;28;20477;-69
2024/02/15 04:04:47;;;;;;;4.50;1.90;;;10.70;99.90;;;;;;5003732;28;20080;-69
2024/02/15 04:07:14;;;;;;;3.08;1.90;;;10.70;99.90;;;;;;5011586;28;20033;-69
2024/02/15 04:09:40;;;;;;;6.65;2.10;;;10.70;99.90;;;;;;5012229;28;20018;-69
2024/02/15 04:12:07;;;;;;;4.80;1.92;;;10.70;99.90;;;;;;5011632;28;20053;-68
2024/02/15 04:14:38;;;;;;;2.97;1.90;;;10.70;99.90;;;;;;5010947;28;20037;-69
2024/02/15 04:17:04;;;;;;;;;;;10.70;99.90;;;;;;5011708;28;20038;-69
2024/02/15 04:19:34;;;;;;;3.17;1.85;;;10.60;99.90;;;;;;5011650;28;19917;-69
2024/02/15 04:22:00;;;;;;;3.83;1.88;;;10.60;99.90;;;;;;5011012;28;20057;-69
2024/02/15 04:24:26;;;;;;;4.38;1.58;;;10.60;99.90;;;;;;5011265;28;20045;-69
2024/02/15 04:26:52;;;;;;;2.30;1.25;;;10.60;99.90;;;;;;5042916;28;20045;-69
2024/02/15 04:29:20;;;;;;;2.28;1.30;;;10.60;99.90;;;;;;5010551;28;20463;-69
2024/02/15 04:31:49;;;;;;;2.53;1.17;;;10.60;99.90;;;;;;5011800;28;20026;-69
2024/02/15 04:34:18;;;;;;;2.42;1.63;;;10.60;99.90;;;;;;5009795;28;20087;-69
2024/02/15 04:36:55;;;;;;;1.83;1.30;;;10.70;99.90;;;;;;5009950;28;20494;-69
2024/02/15 04:39:26;;;;;;;2.92;1.65;;;10.70;99.90;;;;;;4995772;28;20077;-70
2024/02/15 04:41:55;;;;;;;;;;;10.70;99.90;;;;;;5016431;28;20414;-69
2024/02/15 04:44:21;;;;;;;3.35;1.80;;;10.70;99.90;;;;;;5010744;28;19962;-70
2024/02/15 04:46:49;;;;;;;4.28;1.27;;;10.70;99.90;;;;;;5042406;28;20022;-70
2024/02/15 04:49:15;;;;;;;4.22;2.05;;;10.70;99.90;;;;;;5010418;28;20584;-70
2024/02/15 04:51:41;;;;;;;7.00;2.00;;;10.70;99.90;;;;;;5010955;28;20815;-70
2024/02/15 04:54:08;;;;;;;12.18;2.15;;;10.70;99.90;;;;;;5006105;28;20039;-70
2024/02/15 04:56:36;;;;;;;4.00;1.23;;;10.70;99.90;;;;;;4993819;28;20037;-70
2024/02/15 04:59:02;;;;;;;5.40;1.90;;;10.60;99.90;;;;;;5010152;28;20065;-70
2024/02/15 05:01:29;;;;;;;2.55;1.27;;;10.70;99.90;;;;;;5042808;28;20036;-69
2024/02/15 05:03:55;;;;;;;5.18;1.55;;;10.70;99.90;;;;;;5011419;28;20060;-70
2024/02/15 05:06:22;;;;;;;4.50;1.95;;;10.70;99.90;;;;;;5042467;28;20037;-69
2024/02/15 05:08:47;;;;;;;2.13;1.40;;;10.70;99.90;;;;;;4998659;28;20101;-70
2024/02/15 05:11:19;;;;;;;7.18;1.75;;;10.70;99.90;;;;;;5017609;28;20128;-69
2024/02/15 05:13:46;;;;;;;5.00;1.20;;;10.70;99.90;;;;;;5009212;28;20038;-69
2024/02/15 05:16:12;;;;;;;3.33;1.73;;;10.70;99.90;;;;;;5012263;28;20065;-69
2024/02/15 05:18:39;;;;;;;2.75;1.27;;;10.70;99.90;;;;;;5046003;28;20022;-70
2024/02/15 05:21:09;;;;;;;5.93;1.65;;;10.70;99.90;;;;;;5046622;28;20422;-70
2024/02/15 05:23:39;;;;;;;2.72;1.75;;;10.70;99.90;;;;;;5013452;28;20034;-69
2024/02/15 05:26:06;;;;;;;2.60;1.67;;;10.70;99.90;;;;;;5015640;28;20085;-69
2024/02/15 05:28:32;;;;;;;5.68;1.50;;;10.70;99.90;;;;;;5037625;28;20097;-69
2024/02/15 05:31:16;;;;;;;5.25;2.28;;;10.70;99.90;;;;;;5014235;28;20422;-69
2024/02/15 05:33:47;;;;;;;5.82;2.22;;;10.70;99.90;;;;;;5043605;28;20080;-70
2024/02/15 05:36:21;;;;;;;6.95;2.05;;;10.60;99.90;;;;;;5023279;28;20120;-69
2024/02/15 05:38:52;;;;;;;4.63;2.28;;;10.70;99.90;;;;;;5011817;28;20030;-70
2024/02/15 05:41:20;;;;;;;4.10;2.20;;;10.70;99.90;;;;;;5037888;28;20112;-70
2024/02/15 05:43:48;;;;;;;5.50;1.50;;;10.60;99.90;;;;;;5011204;28;20490;-70
2024/02/15 05:46:14;;;;;;;5.75;2.28;;;10.70;99.90;;;;;;4998539;28;20038;-70
2024/02/15 05:48:41;;;;;;;4.10;1.65;;;10.70;99.90;;;;;;5029111;28;20033;-70
2024/02/15 05:51:08;;;;;;;4.80;1.88;;;10.70;99.90;;;;;;5013412;28;20030;-70
2024/02/15 05:53:38;;;;;;;4.80;1.67;;;10.70;99.90;;;;;;5012331;28;20038;-70
2024/02/15 05:56:06;;;;;;;3.75;1.80;;;10.70;99.90;;;;;;5030210;28;20046;-69
2024/02/15 05:58:33;;;;;;;4.43;1.83;;;10.60;99.90;;;;;;5044840;28;20022;-70
2024/02/15 06:01:04;;;;;;;2.55;1.40;;;10.60;99.90;;;;;;5046219;28;20045;-70
2024/02/15 06:03:33;;;;;;;7.10;1.33;;;10.60;99.90;;;;;;5011953;28;20042;-70
2024/02/15 06:06:01;;;;;;;5.45;2.35;;;10.70;99.90;;;;;;5013079;28;20076;-70
2024/02/15 06:08:30;;;;;;;4.15;1.30;;;10.60;99.90;;;;;;5013515;28;20121;-69
2024/02/15 06:10:56;;;;;;;5.65;1.30;;;10.70;99.90;;;;;;5009269;28;20038;-69
2024/02/15 06:13:23;;;;;;;5.35;2.40;;;10.60;99.90;;;;;;5038712;28;20052;-69
2024/02/15 06:15:53;;;;;;;2.15;1.25;;;10.60;99.90;;;;;;5013455;28;20112;-69
2024/02/15 06:18:26;;;;;;;3.10;1.42;;;10.60;99.90;;;;;;5013052;28;20510;-68
2024/02/15 06:20:52;;;;;;;8.52;1.65;;;10.70;99.90;;;;;;5009385;28;20030;-69
2024/02/15 06:23:18;;;;;;;2.15;1.10;;;10.60;99.90;;;;;;5008948;28;20088;-71
2024/02/15 06:25:47;;;;;;;11.90;2.00;;;10.70;99.90;;;;;;5046609;28;20026;-70
2024/02/15 06:28:19;;;;;;;2.67;1.30;;;10.70;99.90;;;;;;5042576;28;20022;-70
2024/02/15 06:41:45;;;;;;;5.25;1.70;;;10.60;99.90;;;;;;5012931;28;20105;-70
2024/02/15 06:44:11;;;;;;;3.42;1.75;;;10.60;99.90;;;;;;5012730;28;20121;-70
2024/02/15 06:46:37;;;;;;;3.47;2.55;;;10.70;99.90;;;;;;5012652;28;20137;-71
2024/02/15 06:49:04;;;;;;;10.45;3.28;;;10.60;99.90;;;;;;5006186;28;20539;-71
2024/02/15 06:51:30;;;;;;;2.63;1.73;;;10.60;99.90;;;;;;5010844;28;20048;-71
2024/02/15 06:53:56;;;;;;;7.75;2.70;;;10.60;99.90;;;;;;5044807;28;20033;-71
2024/02/15 06:56:22;;;;;;;3.10;1.83;;;10.70;99.90;;;;;;4994438;28;20496;-70
2024/02/15 06:58:49;;;;;;;7.63;2.63;;;10.70;99.90;;;;;;5001963;28;20026;-69
2024/02/15 07:01:16;;;;;;;8.55;3.78;;;10.70;99.90;;;;;;5038001;28;20056;-71
2024/02/15 07:03:45;;;;;;;8.85;1.90;;;10.70;99.90;;;;;;5003561;28;20040;-71
2024/02/15 07:06:13;;;;;;;6.30;2.38;;;10.80;99.90;;;;;;5023868;28;20037;-71
2024/02/15 07:08:40;;;;;;;4.25;1.88;;;10.90;99.90;;;;;;5004570;28;20121;-71
2024/02/15 07:11:09;;;;;;;4.32;1.98;;;10.90;99.90;;;;;;5012554;28;20064;-69
2024/02/15 07:13:36;;;;;;;2.17;1.30;;;10.80;99.90;;;;;;5008695;28;20068;-68
2024/02/15 07:16:07;;;;;;;3.10;1.33;;;10.90;99.90;;;;;;5012471;28;20514;-70
2024/02/15 07:18:35;;;;;;;2.70;2.15;;;10.80;99.90;;;;;;5012245;28;20494;-69
2024/02/15 07:21:03;;;;;;;5.68;1.88;;;10.80;99.90;;;;;;5043866;28;20038;-67
2024/02/15 07:23:29;;;;;;;3.88;1.80;;;10.80;99.90;;;;;;5026894;28;20029;-70
2024/02/15 07:25:55;;;;;;;9.18;2.70;;;10.80;99.90;;;;;;5012141;28;20475;-68
2024/02/15 07:28:21;;;;;;;7.68;2.17;;;10.80;99.90;;;;;;5006086;28;20030;-68
2024/02/15 07:30:50;;;;;;;10.48;1.90;;;10.80;99.90;;;;;;5010817;28;20383;-69
2024/02/15 07:33:17;;;;;;;3.97;1.95;;;10.80;99.90;;;;;;5010152;28;20034;-69
2024/02/15 07:35:44;;;;;;;6.38;1.52;;;10.80;99.90;;;;;;5005295;28;20032;-68
2024/02/15 07:38:11;;;;;;;2.30;1.40;;;10.80;99.90;;;;;;5044069;28;20025;-68
2024/02/15 07:40:39;;;;;;;5.78;2.42;;;10.80;99.90;;;;;;5010878;28;20376;-68
2024/02/15 07:43:06;;;;;;;3.47;1.75;;;10.80;99.90;;;;;;5012929;28;20482;-69
2024/02/15 07:45:35;;;;;;;2.58;1.58;;;10.80;99.90;;;;;;5010119;28;20042;-69
2024/02/15 07:48:01;;;;;;;5.07;1.38;;;10.80;99.90;;;;;;5026877;28;20037;-69
2024/02/15 07:50:27;;;;;;;3.38;1.58;;;10.90;99.90;;;;;;5042140;28;20057;-69
2024/02/15 07:52:53;;;;;;;2.72;1.55;;;10.80;99.90;;;;;;5043744;28;20105;-69
2024/02/15 07:55:19;;;;;;;3.42;1.40;;;10.90;99.90;;;;;;5009964;28;20034;-70
2024/02/15 07:57:48;;;;;;;4.68;1.88;;;10.90;99.90;;;;;;5004719;28;20040;-69
2024/02/15 08:00:16;;;;;;;7.35;2.03;;;10.90;99.90;;;;;;5011768;28;20036;-69
2024/02/15 08:02:43;;;;;;;3.90;1.67;;;10.90;99.90;;;;;;5012174;28;20088;-70
2024/02/15 08:05:14;;;;;;;3.90;1.25;;;10.90;99.90;;;;;;5009024;28;20552;-69
2024/02/15 08:07:45;;;;;;;;;;;11.00;99.90;;;;;;5012843;28;20512;-69
2024/02/15 08:10:14;;;;;;;7.75;2.50;;;11.00;99.90;;;;;;5005086;28;19978;-69
2024/02/15 08:12:44;;;;;;;5.65;1.50;;;11.10;99.90;;;;;;5010366;28;20490;-70
2024/02/15 08:15:11;;;;;;;3.40;1.83;;;11.10;99.90;;;;;;5009398;28;20041;-69
2024/02/15 08:17:48;;;;;;;10.40;1.67;;;11.10;99.90;;;;;;5012325;28;20034;-69
2024/02/15 08:20:17;;;;;;;1.92;1.20;;;11.10;99.90;;;;;;5041748;28;20054;-69
2024/02/15 08:22:43;;;;;;;3.22;1.52;;;11.10;99.90;;;;;;5010367;28;20033;-69
2024/02/15 08:25:11;;;;;;;5.13;1.60;;;11.10;99.90;;;;;;5010586;28;20552;-69
2024/02/15 08:27:43;;;;;;;1.90;1.13;;;11.10;99.90;;;;;;5010535;28;20038;-69
2024/02/15 08:30:12;;;;;;;2.35;1.42;;;11.10;99.90;;;;;;5041586;28;20032;-68
2024/02/15 08:32:42;;;;;;;2.25;1.35;;;11.20;99.90;;;;;;5026720;28;20046;-69
2024/02/15 08:35:10;;;;;;;12.95;1.77;;;11.30;99.90;;;;;;5008975;28;20040;-69
2024/02/15 08:37:41;;;;;;;3.80;1.88;;;11.40;99.90;;;;;;5009692;28;20034;-69
2024/02/15 08:40:14;;;;;;;3.60;1.05;;;11.60;99.90;;;;;;5009013;28;20034;-70
2024/02/15 08:42:42;;;;;;;6.18;1.33;;;11.70;99.90;;;;;;5017476;28;20026;-69
2024/02/15 08:45:09;;;;;;;9.63;2.05;;;11.80;99.90;;;;;;5010714;28;20585;-69
2024/02/15 08:47:40;;;;;;;3.30;2.38;;;11.80;99.90;;;;;;5026543;28;20038;-69
2024/02/15 08:50:09;;;;;;;4.20;1.52;;;11.90;99.90;;;;;;5016369;28;20032;-69
2024/02/15 08:52:38;;;;;;;5.22;2.05;;;12.00;99.90;;;;;;5009663;28;20038;-70
2024/02/15 08:55:09;;;;;;;2.97;1.55;;;11.90;99.90;;;;;;5034870;28;20046;-68
2024/02/15 08:57:37;;;;;;;2.63;1.35;;;11.80;99.90;;;;;;5041024;28;20032;-69
2024/02/15 09:00:13;;;;;;;5.10;2.08;;;12.00;99.90;;;;;;5009886;28;20557;-69
2024/02/15 09:02:49;;;;;;;3.13;2.00;;;12.20;99.90;;;;;;5009929;28;20045;-69
2024/02/15 09:05:15;;;;;;;4.32;1.85;;;12.30;99.90;;;;;;5009077;28;20030;-69
2024/02/15 09:07:47;;;;;;;1.92;1.55;;;12.60;99.90;;;;;;5018071;28;20045;-69
2024/02/15 09:10:16;;;;;;;5.07;2.03;;;12.70;99.90;;;;;;5024946;28;20168;-69
2024/02/15 09:12:46;;;;;;;3.38;1.92;;;12.70;99.90;;;;;;5025611;28;20032;-69
2024/02/15 09:15:13;;;;;;;9.45;2.10;;;12.90;99.90;;;;;;5008428;28;20483;-69
2024/02/15 09:17:40;;;;;;;4.57;1.55;;;12.90;99.90;;;;;;5009351;28;20100;-68
2024/02/15 09:20:14;;;;;;;7.00;1.88;;;13.10;99.90;;;;;;5021478;28;20030;-68
2024/02/15 09:22:47;;;;;;;5.50;1.75;;;13.00;99.90;;;;;;5008798;28;20486;-69
2024/02/15 09:25:13;;;;;;;3.97;1.98;;;13.10;99.90;;;;;;5008598;28;20475;-70
2024/02/15 09:27:40;;;;;;;4.25;1.77;;;13.20;99.90;;;;;;5010687;28;20370;-70
2024/02/15 09:30:09;;;;;;;6.03;1.70;;;13.30;99.90;;;;;;5041260;28;20562;-70
2024/02/15 09:32:35;;;;;;;3.00;1.90;;;13.30;99.90;;;;;;5010436;28;20049;-69
2024/02/15 09:35:02;;;;;;;8.07;1.60;;;13.50;99.90;;;;;;5003098;28;1109966;-68
2024/02/15 09:37:29;;;;;;;3.35;1.40;;;13.60;99.90;;;;;;5011272;28;20116;-68
2024/02/15 09:39:55;;;;;;;5.68;1.50;;;13.60;99.90;;;;;;5010785;28;20132;-70
2024/02/15 09:42:21;;;;;;;1.67;0.90;;;13.80;99.90;;;;;;5011266;28;20471;-70
2024/02/15 09:44:48;;;;;;;3.50;1.10;;;13.80;99.90;;;;;;5008279;28;20038;-68
2024/02/15 09:47:17;;;;;;;4.47;1.08;;;13.70;99.90;;;;;;5011271;28;20026;-69
2024/02/15 09:49:43;;;;;;;4.57;1.70;;;13.90;99.90;;;;;;5042043;28;20025;-68
2024/02/15 09:52:15;;;;;;;3.53;1.25;;;13.80;99.90;;;;;;5003971;28;20065;-68
2024/02/15 09:54:44;;;;;;;3.28;1.25;;;13.80;99.90;;;;;;5009248;28;20112;-68
2024/02/15 09:57:12;;;;;;;5.45;1.33;;;13.90;99.90;;;;;;5038416;28;20038;-70
2024/02/15 09:59:41;;;;;;;3.88;1.52;;;14.10;99.90;;;;;;5012632;28;20057;-68
2024/02/15 10:02:10;;;;;;;2.03;1.00;;;14.20;99.90;;;;;;5014897;28;20022;-69
2024/02/15 10:04:39;;;;;;;2.22;1.42;;;14.30;99.90;;;;;;5044110;28;20088;-69
2024/02/15 10:07:05;;;;;;;1.90;1.20;;;14.60;99.90;;;;;;5015028;28;20026;-69
2024/02/15 10:09:31;;;;;;;7.30;1.23;;;14.60;99.90;;;;;;5013427;28;20034;-69
2024/02/15 10:11:59;;;;;;;3.25;1.33;;;14.80;99.90;;;;;;5037917;28;20513;-68
2024/02/15 10:14:26;;;;;;;1.23;0.73;;;14.80;99.90;;;;;;5008626;28;20631;-69
2024/02/15 10:16:56;;;;;;;1.52;0.80;;;14.80;99.90;;;;;;5014662;28;20487;-69
2024/02/15 10:19:24;;;;;;;1.90;0.63;;;14.80;99.90;;;;;;5044957;28;20029;-70
2024/02/15 10:21:57;;;;;;;0.77;0.47;;;15.20;99.90;;;;;;5042639;28;20026;-69
2024/02/15 10:24:27;;;;;;;10.13;0.70;;;15.40;99.90;;;;;;5009483;28;20064;-68
2024/02/15 10:27:06;;;;;;;2.67;0.80;;;15.70;99.90;;;;;;5014136;28;20026;-68
2024/02/15 10:29:32;;;;;;;3.30;0.88;;;15.40;99.90;;;;;;5044213;28;20045;-68
2024/02/15 10:32:00;;;;;;;1.08;0.38;;;15.50;99.90;;;;;;5014202;28;20026;-69
2024/02/15 10:34:30;;;;;;;0.68;0.40;;;16.10;99.90;;;;;;5010240;28;20482;-69
2024/02/15 10:37:13;;;;;;;3.65;0.85;;;16.20;99.90;;;;;;5021820;28;20398;-70
2024/02/15 10:39:40;;;;;;;1.23;0.60;;;16.40;99.90;;;;;;5032565;28;20561;-70
2024/02/15 10:42:10;;;;;;;2.35;0.47;;;16.30;99.90;;;;;;5033878;28;20104;-68
2024/02/15 10:44:38;;;;;;;2.08;0.75;;;15.80;99.90;;;;;;5016713;28;20026;-69
2024/02/15 10:47:07;;;;;;;1.35;0.52;;;15.90;99.90;;;;;;5013834;28;20061;-69
2024/02/15 10:49:34;;;;;;;0.40;0.35;;;16.10;99.90;;;;;;5043599;28;20025;-69
2024/02/15 10:52:04;;;;;;;1.13;0.55;;;16.00;99.90;;;;;;5045408;28;20026;-69
2024/02/15 10:54:46;;;;;;;0.88;0.47;;;15.80;99.90;;;;;;5010909;28;20030;-70
2024/02/15 10:57:14;;;;;;;1.60;0.90;;;15.30;99.90;;;;;;5044312;28;20037;-70
2024/02/15 11:00:10;;;;;;;0.60;0.45;;;15.30;99.90;;;;;;5043642;28;20382;-69
2024/02/15 11:02:52;;;;;;;1.52;0.63;;;15.80;99.90;;;;;;5013267;28;20109;-70
2024/02/15 11:05:23;;;;;;;3.88;0.60;;;16.60;99.90;;;;;;5042212;28;20041;-70
2024/02/15 11:07:49;;;;;;;1.17;0.55;;;16.40;99.90;;;;;;5012383;28;20030;-68
2024/02/15 11:10:17;;;;;;;1.10;0.40;;;16.00;99.90;;;;;;5009340;28;20092;-69
2024/02/15 11:12:43;;;;;;;1.92;0.60;;;16.00;99.90;;;;;;5043285;28;20030;-68
2024/02/15 11:15:11;;;;;;;0.50;0.32;;;17.10;99.90;;;;;;5010294;28;20450;-69
2024/02/15 11:17:37;;;;;;;1.15;0.55;;;17.80;99.90;;;;;;5011313;28;20037;-68
2024/02/15 11:20:09;;;;;;;5.25;1.02;;;17.90;99.90;;;;;;5011845;28;20105;-69
2024/02/15 11:22:38;;;;;;;3.58;1.00;;;17.70;99.90;;;;;;5034477;28;20129;-70
2024/02/15 11:25:11;;;;;;;2.47;0.70;;;17.30;99.90;;;;;;5022351;28;20446;-70
2024/02/15 11:27:41;;;;;;;1.98;0.70;;;19.10;99.90;;;;;;5010238;28;20034;-69
2024/02/15 11:30:12;;;;;;;5.00;0.90;;;19.30;99.90;;;;;;5008566;28;20482;-70
2024/02/15 11:32:56;;;;;;;1.33;0.55;;;19.50;98.00;;;;;;5034258;28;20033;-70
2024/02/15 11:35:28;;;;;;;12.15;0.88;;;20.10;97.50;;;;;;5040538;28;20045;-71
2024/02/15 11:37:59;;;;;;;0.40;0.30;;;20.30;96.80;;;;;;5004592;28;20056;-69
2024/02/15 11:40:52;;;;;;;8.80;0.57;;;19.20;97.80;;;;;;4994376;28;20100;-70
2024/02/15 11:44:02;;;;;;;1.13;0.50;;;19.40;97.90;;;;;;5011146;28;20054;-69
2024/02/15 11:46:32;;;;;;;1.50;0.52;;;19.10;97.20;;;;;;5009215;28;20402;-69
2024/02/15 11:48:59;;;;;;;6.93;0.90;;;19.20;99.10;;;;;;5011481;28;20489;-69
2024/02/15 11:51:36;;;;;;;1.85;0.70;;;18.40;99.90;;;;;;5012318;28;20057;-69
2024/02/15 11:54:11;;;;;;;4.20;0.77;;;18.00;99.90;;;;;;5010282;28;20033;-69
2024/02/15 12:00:12;;;;;;;0.90;0.52;;;17.40;99.90;;;;;;5002009;28;20462;-68
2024/02/15 12:19:21;;;;;;;2.63;0.95;;;16.70;99.90;;;;;;5010933;28;20041;-69
2024/02/15 12:21:48;;;;;;;1.45;0.50;;;16.70;99.90;;;;;;5010327;28;20060;-70
2024/02/15 12:24:15;;;;;;;2.45;1.27;;;16.90;99.90;;;;;;5009411;28;20041;-69
2024/02/15 12:26:41;;;;;;;4.18;0.80;;;16.90;99.90;;;;;;5010453;28;20026;-69
2024/02/15 12:29:08;;;;;;;1.85;0.70;;;16.80;99.90;;;;;;5011203;28;20042;-69
2024/02/15 12:31:38;;;;;;;1.88;0.45;;;16.90;99.90;;;;;;5008596;28;20118;-69
2024/02/15 12:34:06;;;;;;;7.57;1.02;;;16.90;99.90;;;;;;5009092;28;20122;-69
2024/02/15 12:36:39;;;;;;;3.35;0.82;;;16.90;99.90;;;;;;5011275;28;20030;-69
2024/02/15 12:39:16;;;;;;;4.03;0.60;;;16.70;99.90;;;;;;5041447;28;20064;-69
2024/02/15 12:41:49;;;;;;;1.25;0.60;;;16.90;99.90;;;;;;5010140;28;20037;-69
2024/02/15 12:44:22;;;;;;;6.90;0.98;;;17.10;99.90;;;;;;5008617;28;20076;-69
2024/02/15 12:46:57;;;;;;;5.15;0.63;;;16.70;99.90;;;;;;5002340;28;20432;-69
2024/02/15 12:49:23;;;;;;;2.42;0.70;;;17.10;99.90;;;;;;5010477;28;20021;-69
2024/02/15 12:52:13;;;;;;;3.60;0.40;;;17.10;99.90;;;;;;5011746;28;20038;-68
2024/02/15 12:54:40;;;;;;;1.83;0.73;;;17.10;99.90;;;;;;5002011;28;20034;-68
2024/02/15 12:57:10;;;;;;;2.58;1.10;;;16.80;99.90;;;;;;5012084;28;20030;-69
2024/02/15 12:59:36;;;;;;;3.25;1.05;;;17.00;99.90;;;;;;5032348;28;20022;-69
2024/02/15 13:02:04;;;;;;;1.08;0.40;;;16.80;99.90;;;;;;5031350;28;20038;-70
2024/02/15 13:04:31;;;;;;;2.47;0.47;;;16.90;99.90;;;;;;5007679;28;20068;-70
2024/02/15 13:06:57;;;;;;;0.98;0.50;;;16.90;99.90;;;;;;5034522;28;20029;-69
2024/02/15 13:09:23;;;;;;;0.50;0.40;;;17.00;99.90;;;;;;5010413;28;20381;-69
2024/02/15 13:11:50;;;;;;;0.45;0.22;;;17.00;99.90;;;;;;5011404;28;20053;-69
2024/02/15 13:14:16;;;;;;;1.40;0.52;;;16.70;99.90;;;;;;5010382;28;20032;-69
2024/02/15 13:16:46;;;;;;;1.30;0.68;;;16.60;99.90;;;;;;5011024;28;20034;-69
2024/02/15 13:19:12;;;;;;;3.13;0.50;;;16.50;99.90;;;;;;5010651;28;20041;-69
2024/02/15 13:21:37;;;;;;;1.75;0.50;;;16.40;99.90;;;;;;5011315;28;20037;-69
2024/02/15 13:24:04;;;;;;;1.30;0.70;;;16.50;99.90;;;;;;5009549;28;20045;-69
2024/02/15 13:26:32;;;;;;;2.65;1.02;;;16.40;99.90;;;;;;5007753;28;20491;-68